createdAt,value
2023-03-15T00:00:00.313Z,68
2023-03-15T00:05:00.240Z,70
2023-03-15T00:10:00.225Z,71
2023-03-15T00:15:00.242Z,71
2023-03-15T00:20:00.417Z,72
2023-03-15T00:25:00.226Z,72
2023-03-15T00:30:00.235Z,72
2023-03-15T00:35:00.265Z,73
2023-03-15T00:40:00.193Z,73
2023-03-15T00:45:00.224Z,74
2023-03-15T00:50:00.232Z,75
2023-03-15T00:55:00.316Z,75
2023-03-15T01:00:00.329Z,75
2023-03-15T01:05:00.252Z,75
2023-03-15T01:10:00.201Z,75
2023-03-15T01:15:00.258Z,76
2023-03-15T01:20:00.320Z,76
2023-03-15T01:25:00.239Z,76
2023-03-15T01:30:00.310Z,76
2023-03-15T01:35:00.230Z,76
2023-03-15T01:40:00.253Z,77
2023-03-15T01:45:00.297Z,77
2023-03-15T01:50:00.181Z,77
2023-03-15T01:55:00.250Z,77
2023-03-15T02:00:00.357Z,78
2023-03-15T02:05:00.253Z,78
2023-03-15T02:10:00.188Z,78
2023-03-15T02:15:00.271Z,80
2023-03-15T02:20:00.299Z,80
2023-03-15T02:25:00.261Z,80
2023-03-15T02:30:00.276Z,80
2023-03-15T02:35:00.193Z,80
2023-03-15T02:40:00.245Z,80
2023-03-15T02:45:00.250Z,80
2023-03-15T02:50:00.238Z,80
2023-03-15T02:55:00.205Z,81
2023-03-15T03:00:00.376Z,81
2023-03-15T03:05:00.248Z,81
2023-03-15T03:10:00.237Z,81
2023-03-15T03:15:00.300Z,82
2023-03-15T03:20:00.225Z,81
2023-03-15T03:25:00.228Z,82
2023-03-15T03:30:00.261Z,82
2023-03-15T03:35:00.421Z,82
2023-03-15T03:40:00.280Z,82
2023-03-15T03:45:00.238Z,82
2023-03-15T03:50:00.234Z,82
2023-03-15T03:55:00.238Z,82
2023-03-15T04:00:00.327Z,82
2023-03-15T04:05:00.503Z,82
2023-03-15T04:10:00.296Z,81
2023-03-15T04:15:00.220Z,82
2023-03-15T04:20:00.261Z,81
2023-03-15T04:25:00.237Z,81
2023-03-15T04:30:00.336Z,81
2023-03-15T04:35:00.287Z,81
2023-03-15T04:40:00.260Z,81
2023-03-15T04:45:00.289Z,81
2023-03-15T04:50:00.312Z,81
2023-03-15T04:55:00.251Z,81
2023-03-15T05:00:00.320Z,81
2023-03-15T05:05:00.270Z,81
2023-03-15T05:10:00.301Z,81
2023-03-15T05:15:00.309Z,81
2023-03-15T05:20:00.269Z,81
2023-03-15T05:25:00.284Z,81
2023-03-15T05:30:00.300Z,81
2023-03-15T05:35:00.269Z,81
2023-03-15T05:40:00.252Z,81
2023-03-15T05:45:00.245Z,81
2023-03-15T05:50:00.240Z,82
2023-03-15T05:55:00.296Z,81
2023-03-15T06:00:00.327Z,81
2023-03-15T06:05:00.235Z,81
2023-03-15T06:10:00.254Z,81
2023-03-15T06:15:00.322Z,81
2023-03-15T06:20:00.298Z,81
2023-03-15T06:25:00.290Z,81
2023-03-15T06:30:00.320Z,81
2023-03-15T06:35:00.270Z,81
2023-03-15T06:40:00.235Z,81
2023-03-15T06:45:00.234Z,81
2023-03-15T06:50:00.240Z,81
2023-03-15T06:55:00.234Z,81
2023-03-15T07:00:00.358Z,81
2023-03-15T07:05:00.242Z,81
2023-03-15T07:10:00.263Z,81
2023-03-15T07:15:00.239Z,81
2023-03-15T07:20:00.297Z,81
2023-03-15T07:25:00.310Z,81
2023-03-15T07:30:00.295Z,81
2023-03-15T07:35:00.304Z,81
2023-03-15T07:40:00.325Z,81
2023-03-15T07:45:00.249Z,81
2023-03-15T07:50:00.275Z,81
2023-03-15T07:55:00.236Z,81
2023-03-15T08:00:00.356Z,80
2023-03-15T08:05:00.284Z,80
2023-03-15T08:10:00.225Z,80
2023-03-15T08:15:00.298Z,80
2023-03-15T08:20:00.229Z,80
2023-03-15T08:25:00.304Z,79
2023-03-15T08:30:00.312Z,79
2023-03-15T08:35:00.289Z,79
2023-03-15T08:40:00.236Z,79
2023-03-15T08:45:05.241Z,79
2023-03-15T08:50:00.274Z,78
2023-03-15T08:55:00.333Z,78
2023-03-15T09:00:00.312Z,78
2023-03-15T09:05:00.258Z,77
2023-03-15T09:10:00.261Z,77
2023-03-15T09:15:00.253Z,78
2023-03-15T09:20:00.299Z,77
2023-03-15T09:25:00.237Z,77
2023-03-15T09:30:00.314Z,77
2023-03-15T09:35:05.311Z,77
2023-03-15T09:40:05.145Z,76
2023-03-15T09:45:00.261Z,76
2023-03-15T09:50:00.284Z,76
2023-03-15T09:55:00.285Z,76
2023-03-15T10:00:00.370Z,76
2023-03-15T10:05:00.246Z,75
2023-03-15T10:10:00.298Z,75
2023-03-15T10:15:00.299Z,74
2023-03-15T10:20:00.287Z,74
2023-03-15T10:25:00.294Z,74
2023-03-15T10:30:00.331Z,74
2023-03-15T10:35:00.251Z,73
2023-03-15T10:40:00.299Z,74
2023-03-15T10:45:00.296Z,72
2023-03-15T10:50:10.107Z,71
2023-03-15T10:55:04.316Z,72
2023-03-15T11:00:00.325Z,72
2023-03-15T11:05:00.280Z,70
2023-03-15T11:10:00.327Z,70
2023-03-15T11:15:00.293Z,70
2023-03-15T11:20:00.275Z,69
2023-03-15T11:25:00.314Z,69
2023-03-15T11:30:00.330Z,69
2023-03-15T11:35:00.256Z,69
2023-03-15T11:40:10.388Z,66
2023-03-15T11:45:00.236Z,65
2023-03-15T11:50:00.264Z,65
2023-03-15T11:55:00.251Z,66
2023-03-15T12:00:05.329Z,63
2023-03-15T12:05:09.172Z,62
2023-03-15T12:10:00.323Z,62
2023-03-15T12:15:00.264Z,61
2023-03-15T12:20:00.278Z,61
2023-03-15T12:25:00.244Z,62
2023-03-15T12:30:00.313Z,62
2023-03-15T12:35:00.238Z,63
2023-03-15T12:40:05.145Z,62
2023-03-15T12:45:00.310Z,60
2023-03-15T12:50:00.272Z,60
2023-03-15T12:55:00.286Z,60
2023-03-15T13:00:05.170Z,58
2023-03-15T13:05:00.245Z,60
2023-03-15T13:10:00.284Z,58
2023-03-15T13:15:00.283Z,59
2023-03-15T13:20:05.270Z,59
2023-03-15T13:25:00.252Z,58
2023-03-15T13:30:00.359Z,58
2023-03-15T13:35:00.252Z,58
2023-03-15T13:40:05.125Z,57
2023-03-15T13:45:00.342Z,56
2023-03-15T13:50:00.280Z,56
2023-03-15T13:55:00.295Z,56
2023-03-15T14:00:00.323Z,55
2023-03-15T14:05:00.241Z,52
2023-03-15T14:10:00.281Z,52
2023-03-15T14:15:00.284Z,52
2023-03-15T14:20:00.356Z,53
2023-03-15T14:25:00.517Z,53
2023-03-15T14:30:10.277Z,54
2023-03-15T14:35:00.331Z,53
2023-03-15T14:40:00.329Z,53
2023-03-15T14:45:00.293Z,53
2023-03-15T14:50:00.486Z,51
2023-03-15T14:55:00.268Z,53
2023-03-15T15:00:00.368Z,53
2023-03-15T15:05:00.303Z,53
2023-03-15T15:10:00.324Z,54
2023-03-15T15:15:00.267Z,54
2023-03-15T15:20:00.342Z,53
2023-03-15T15:25:00.293Z,53
2023-03-15T15:30:00.338Z,54
2023-03-15T15:35:00.292Z,55
2023-03-15T15:40:00.293Z,55
2023-03-15T15:45:00.280Z,53
2023-03-15T15:50:00.329Z,53
2023-03-15T15:55:00.782Z,53
2023-03-15T16:00:00.449Z,53
2023-03-15T16:05:00.250Z,53
2023-03-15T16:10:00.391Z,53
2023-03-15T16:15:00.298Z,53
2023-03-15T16:20:00.323Z,53
2023-03-15T16:25:00.284Z,53
2023-03-15T16:30:00.311Z,53
2023-03-15T16:35:00.326Z,53
2023-03-15T16:40:00.305Z,53
2023-03-15T16:45:00.238Z,53
2023-03-15T16:50:00.391Z,54
2023-03-15T16:55:00.299Z,54
2023-03-15T17:00:05.402Z,54
2023-03-15T17:05:00.277Z,54
2023-03-15T17:10:00.359Z,54
2023-03-15T17:15:00.302Z,55
2023-03-15T17:20:00.319Z,55
2023-03-15T17:25:00.274Z,55
2023-03-15T17:30:00.371Z,56
2023-03-15T17:35:00.263Z,56
2023-03-15T17:40:00.314Z,56
2023-03-15T17:45:00.293Z,57
2023-03-15T17:50:00.265Z,57
2023-03-15T17:55:00.408Z,57
2023-03-15T18:00:00.351Z,57
2023-03-15T18:05:00.312Z,58
2023-03-15T18:10:00.308Z,58
2023-03-15T18:15:00.284Z,58
2023-03-15T18:20:00.316Z,59
2023-03-15T18:25:00.303Z,59
2023-03-15T18:30:00.350Z,59
2023-03-15T18:35:00.288Z,60
2023-03-15T18:40:00.335Z,60
2023-03-15T18:45:00.314Z,60
2023-03-15T18:50:09.811Z,60
2023-03-15T18:55:00.253Z,60
2023-03-15T19:00:05.201Z,61
2023-03-15T19:05:00.231Z,61
2023-03-15T19:10:00.289Z,61
2023-03-15T19:15:00.281Z,62
2023-03-15T19:20:00.290Z,62
2023-03-15T19:25:00.307Z,62
2023-03-15T19:30:00.303Z,62
2023-03-15T19:35:00.315Z,63
2023-03-15T19:40:00.328Z,63
2023-03-15T19:45:00.287Z,63
2023-03-15T19:50:00.338Z,64
2023-03-15T19:55:00.286Z,64
2023-03-15T20:00:00.350Z,64
2023-03-15T20:05:00.321Z,64
2023-03-15T20:10:00.307Z,64
2023-03-15T20:15:00.281Z,64
2023-03-15T20:20:00.328Z,65
2023-03-15T20:25:00.281Z,65
2023-03-15T20:30:00.363Z,65
2023-03-15T20:35:00.309Z,66
2023-03-15T20:40:00.327Z,66
2023-03-15T20:45:00.284Z,66
2023-03-15T20:50:00.336Z,66
2023-03-15T20:55:00.281Z,66
2023-03-15T21:00:00.358Z,66
2023-03-15T21:05:00.282Z,66
2023-03-15T21:10:00.353Z,67
2023-03-15T21:15:00.295Z,67
2023-03-15T21:20:00.302Z,67
2023-03-15T21:25:00.291Z,67
2023-03-15T21:30:00.346Z,67
2023-03-15T21:35:00.291Z,67
2023-03-15T21:40:00.320Z,67
2023-03-15T21:45:00.282Z,68
2023-03-15T21:50:00.288Z,68
2023-03-15T21:55:00.310Z,68
2023-03-15T22:00:00.280Z,68
2023-03-15T22:05:00.374Z,68
2023-03-15T22:10:00.228Z,68
2023-03-15T22:15:05.695Z,68
2023-03-15T22:20:00.172Z,69
2023-03-15T22:25:00.271Z,69
2023-03-15T22:30:00.261Z,69
2023-03-15T22:35:00.264Z,69
2023-03-15T22:40:00.223Z,69
2023-03-15T22:45:00.289Z,69
2023-03-15T22:50:00.247Z,69
2023-03-15T22:55:00.229Z,69
2023-03-15T23:00:10.263Z,69
2023-03-15T23:05:00.314Z,69
2023-03-15T23:10:00.248Z,69
2023-03-15T23:15:00.998Z,70
2023-03-15T23:20:00.179Z,70
2023-03-15T23:25:00.228Z,70
2023-03-15T23:30:00.299Z,70
2023-03-15T23:35:00.297Z,70
2023-03-15T23:40:00.227Z,70
2023-03-15T23:45:00.228Z,70
2023-03-15T23:50:00.243Z,70
2023-03-15T23:55:00.242Z,70
